sensor_id;sensor_type;location;lat;lon;timestamp;P1;durP1;ratioP1;P2;durP2;ratioP2
13706;SDS011;6925;47.816;13.072;2022-11-10T00:01:19;5.80;;;2.80;;
13706;SDS011;6925;47.816;13.072;2022-11-10T00:03:48;4.22;;;2.72;;
13706;SDS011;6925;47.816;13.072;2022-11-10T00:06:15;6.65;;;2.47;;
13706;SDS011;6925;47.816;13.072;2022-11-10T00:11:16;3.63;;;1.90;;
13706;SDS011;6925;47.816;13.072;2022-11-10T00:13:50;5.65;;;2.70;;
13706;SDS011;6925;47.816;13.072;2022-11-10T00:16:44;4.90;;;2.20;;
13706;SDS011;6925;47.816;13.072;2022-11-10T00:25:00;4.03;;;2.08;;
13706;SDS011;6925;47.816;13.072;2022-11-10T00:27:27;4.75;;;2.45;;
13706;SDS011;6925;47.816;13.072;2022-11-10T00:29:55;4.75;;;2.35;;
13706;SDS011;6925;47.816;13.072;2022-11-10T00:34:49;5.40;;;2.55;;
13706;SDS011;6925;47.816;13.072;2022-11-10T00:37:17;4.65;;;3.13;;
13706;SDS011;6925;47.816;13.072;2022-11-10T00:39:47;4.32;;;2.10;;
13706;SDS011;6925;47.816;13.072;2022-11-10T00:42:33;4.32;;;2.20;;
13706;SDS011;6925;47.816;13.072;2022-11-10T00:47:38;5.28;;;2.50;;
13706;SDS011;6925;47.816;13.072;2022-11-10T03:25:01;5.88;;;3.85;;
13706;SDS011;6925;47.816;13.072;2022-11-10T03:30:45;6.40;;;3.38;;
13706;SDS011;6925;47.816;13.072;2022-11-10T03:33:13;6.30;;;3.72;;
13706;SDS011;6925;47.816;13.072;2022-11-10T03:38:08;5.82;;;3.00;;
13706;SDS011;6925;47.816;13.072;2022-11-10T03:43:04;7.05;;;3.35;;
13706;SDS011;6925;47.816;13.072;2022-11-10T04:32:26;4.95;;;2.58;;
13706;SDS011;6925;47.816;13.072;2022-11-10T05:43:35;6.45;;;4.05;;
13706;SDS011;6925;47.816;13.072;2022-11-10T05:46:03;5.82;;;3.35;;
13706;SDS011;6925;47.816;13.072;2022-11-10T05:59:32;9.75;;;3.50;;
13706;SDS011;6925;47.816;13.072;2022-11-10T06:01:59;6.80;;;3.58;;
13706;SDS011;6925;47.816;13.072;2022-11-10T06:04:26;6.65;;;3.25;;
13706;SDS011;6925;47.816;13.072;2022-11-10T06:09:36;7.25;;;3.50;;
13706;SDS011;6925;47.816;13.072;2022-11-10T06:13:00;8.60;;;3.40;;
13706;SDS011;6925;47.816;13.072;2022-11-10T06:15:38;4.57;;;2.85;;
13706;SDS011;6925;47.816;13.072;2022-11-10T06:18:07;3.63;;;2.55;;
13706;SDS011;6925;47.816;13.072;2022-11-10T06:20:37;5.38;;;3.50;;
13706;SDS011;6925;47.816;13.072;2022-11-10T06:23:08;4.78;;;2.55;;
13706;SDS011;6925;47.816;13.072;2022-11-10T06:25:37;3.97;;;2.60;;
13706;SDS011;6925;47.816;13.072;2022-11-10T06:28:05;3.85;;;2.40;;
13706;SDS011;6925;47.816;13.072;2022-11-10T06:30:36;4.88;;;3.40;;
13706;SDS011;6925;47.816;13.072;2022-11-10T06:33:04;5.45;;;3.55;;
13706;SDS011;6925;47.816;13.072;2022-11-10T06:35:35;4.63;;;3.05;;
13706;SDS011;6925;47.816;13.072;2022-11-10T06:38:04;5.55;;;3.30;;
13706;SDS011;6925;47.816;13.072;2022-11-10T06:40:34;5.55;;;2.75;;
13706;SDS011;6925;47.816;13.072;2022-11-10T06:43:01;4.15;;;2.35;;
13706;SDS011;6925;47.816;13.072;2022-11-10T06:45:29;4.97;;;2.33;;
13706;SDS011;6925;47.816;13.072;2022-11-10T06:48:02;5.10;;;2.70;;
13706;SDS011;6925;47.816;13.072;2022-11-10T06:50:31;4.65;;;3.17;;
13706;SDS011;6925;47.816;13.072;2022-11-10T06:53:12;6.75;;;3.15;;
13706;SDS011;6925;47.816;13.072;2022-11-10T06:55:41;3.78;;;2.53;;
13706;SDS011;6925;47.816;13.072;2022-11-10T07:00:36;5.60;;;3.25;;
13706;SDS011;6925;47.816;13.072;2022-11-10T07:03:06;6.45;;;3.10;;
13706;SDS011;6925;47.816;13.072;2022-11-10T07:05:36;5.03;;;2.75;;
13706;SDS011;6925;47.816;13.072;2022-11-10T07:08:04;6.25;;;3.00;;
13706;SDS011;6925;47.816;13.072;2022-11-10T07:10:32;6.35;;;3.08;;
13706;SDS011;6925;47.816;13.072;2022-11-10T07:13:01;4.80;;;2.72;;
13706;SDS011;6925;47.816;13.072;2022-11-10T07:15:32;4.05;;;2.53;;
13706;SDS011;6925;47.816;13.072;2022-11-10T07:18:01;4.68;;;2.33;;
13706;SDS011;6925;47.816;13.072;2022-11-10T07:20:31;4.20;;;1.77;;
13706;SDS011;6925;47.816;13.072;2022-11-10T07:22:59;5.20;;;3.33;;
13706;SDS011;6925;47.816;13.072;2022-11-10T07:25:30;5.57;;;3.58;;
13706;SDS011;6925;47.816;13.072;2022-11-10T07:28:00;4.68;;;2.70;;
13706;SDS011;6925;47.816;13.072;2022-11-10T07:30:32;3.88;;;2.30;;
13706;SDS011;6925;47.816;13.072;2022-11-10T07:33:01;3.63;;;1.40;;
13706;SDS011;6925;47.816;13.072;2022-11-10T07:35:33;5.40;;;1.48;;
13706;SDS011;6925;47.816;13.072;2022-11-10T07:38:03;3.42;;;2.10;;
13706;SDS011;6925;47.816;13.072;2022-11-10T07:40:32;7.90;;;3.10;;
13706;SDS011;6925;47.816;13.072;2022-11-10T07:43:02;4.97;;;2.85;;
13706;SDS011;6925;47.816;13.072;2022-11-10T07:45:31;5.22;;;2.83;;
13706;SDS011;6925;47.816;13.072;2022-11-10T07:48:02;5.43;;;3.00;;
13706;SDS011;6925;47.816;13.072;2022-11-10T07:50:33;4.00;;;2.65;;
13706;SDS011;6925;47.816;13.072;2022-11-10T07:53:01;5.38;;;3.20;;
13706;SDS011;6925;47.816;13.072;2022-11-10T07:55:30;4.85;;;2.05;;
13706;SDS011;6925;47.816;13.072;2022-11-10T07:58:02;6.15;;;2.78;;
13706;SDS011;6925;47.816;13.072;2022-11-10T08:00:32;3.60;;;2.17;;
13706;SDS011;6925;47.816;13.072;2022-11-10T08:03:02;8.38;;;2.92;;
13706;SDS011;6925;47.816;13.072;2022-11-10T08:05:39;3.90;;;2.10;;
13706;SDS011;6925;47.816;13.072;2022-11-10T08:08:09;4.65;;;1.80;;
13706;SDS011;6925;47.816;13.072;2022-11-10T08:10:39;3.47;;;2.00;;
13706;SDS011;6925;47.816;13.072;2022-11-10T08:13:10;3.95;;;1.50;;
13706;SDS011;6925;47.816;13.072;2022-11-10T08:15:39;1.85;;;0.90;;
13706;SDS011;6925;47.816;13.072;2022-11-10T08:18:12;3.50;;;1.30;;
13706;SDS011;6925;47.816;13.072;2022-11-10T08:20:47;4.90;;;2.40;;
13706;SDS011;6925;47.816;13.072;2022-11-10T08:25:46;3.60;;;1.10;;
13706;SDS011;6925;47.816;13.072;2022-11-10T08:28:46;2.35;;;1.20;;
13706;SDS011;6925;47.816;13.072;2022-11-10T08:31:31;2.25;;;1.08;;
13706;SDS011;6925;47.816;13.072;2022-11-10T08:34:11;2.15;;;0.80;;
13706;SDS011;6925;47.816;13.072;2022-11-10T08:36:40;3.38;;;1.10;;
13706;SDS011;6925;47.816;13.072;2022-11-10T08:39:08;2.05;;;1.00;;
13706;SDS011;6925;47.816;13.072;2022-11-10T08:41:36;3.15;;;0.98;;
13706;SDS011;6925;47.816;13.072;2022-11-10T08:44:04;3.25;;;1.50;;
13706;SDS011;6925;47.816;13.072;2022-11-10T08:46:33;5.20;;;1.40;;
13706;SDS011;6925;47.816;13.072;2022-11-10T08:49:01;3.83;;;1.25;;
13706;SDS011;6925;47.816;13.072;2022-11-10T08:51:29;2.53;;;1.02;;
13706;SDS011;6925;47.816;13.072;2022-11-10T08:56:40;2.88;;;1.00;;
13706;SDS011;6925;47.816;13.072;2022-11-10T08:59:09;2.05;;;1.05;;
13706;SDS011;6925;47.816;13.072;2022-11-10T09:01:37;2.17;;;0.90;;
13706;SDS011;6925;47.816;13.072;2022-11-10T09:04:05;1.88;;;0.95;;
13706;SDS011;6925;47.816;13.072;2022-11-10T10:38:56;6.45;;;3.97;;
13706;SDS011;6925;47.816;13.072;2022-11-10T10:41:33;6.50;;;3.95;;
13706;SDS011;6925;47.816;13.072;2022-11-10T12:46:00;7.68;;;1.90;;
13706;SDS011;6925;47.816;13.072;2022-11-10T12:53:40;7.53;;;1.63;;
13706;SDS011;6925;47.816;13.072;2022-11-10T12:56:11;4.05;;;1.65;;
13706;SDS011;6925;47.816;13.072;2022-11-10T13:01:22;7.68;;;2.10;;
13706;SDS011;6925;47.816;13.072;2022-11-10T15:48:50;3.65;;;1.67;;
13706;SDS011;6925;47.816;13.072;2022-11-10T15:51:54;4.38;;;1.70;;
13706;SDS011;6925;47.816;13.072;2022-11-10T19:33:08;5.07;;;3.10;;
13706;SDS011;6925;47.816;13.072;2022-11-10T19:35:39;4.07;;;2.35;;
13706;SDS011;6925;47.816;13.072;2022-11-10T19:38:06;4.88;;;2.55;;
13706;SDS011;6925;47.816;13.072;2022-11-10T20:42:59;3.03;;;1.60;;
13706;SDS011;6925;47.816;13.072;2022-11-10T20:45:26;5.22;;;1.88;;
13706;SDS011;6925;47.816;13.072;2022-11-10T20:47:55;3.00;;;1.60;;
13706;SDS011;6925;47.816;13.072;2022-11-10T20:50:25;4.63;;;1.85;;
13706;SDS011;6925;47.816;13.072;2022-11-10T20:52:53;5.70;;;2.08;;
13706;SDS011;6925;47.816;13.072;2022-11-10T20:55:20;3.75;;;2.38;;
13706;SDS011;6925;47.816;13.072;2022-11-10T20:57:54;16.13;;;7.90;;
13706;SDS011;6925;47.816;13.072;2022-11-10T21:40:01;3.15;;;1.40;;
13706;SDS011;6925;47.816;13.072;2022-11-10T21:42:42;3.65;;;1.35;;
13706;SDS011;6925;47.816;13.072;2022-11-10T21:45:09;3.60;;;1.40;;
13706;SDS011;6925;47.816;13.072;2022-11-10T21:47:39;3.08;;;1.52;;
13706;SDS011;6925;47.816;13.072;2022-11-10T21:50:20;3.42;;;1.27;;
13706;SDS011;6925;47.816;13.072;2022-11-10T21:52:48;4.03;;;2.03;;
13706;SDS011;6925;47.816;13.072;2022-11-10T21:55:18;4.82;;;1.83;;
13706;SDS011;6925;47.816;13.072;2022-11-10T21:57:46;4.07;;;1.85;;
13706;SDS011;6925;47.816;13.072;2022-11-10T22:00:14;2.65;;;1.15;;
13706;SDS011;6925;47.816;13.072;2022-11-10T22:02:42;3.28;;;1.35;;
13706;SDS011;6925;47.816;13.072;2022-11-10T22:05:09;3.65;;;1.40;;
13706;SDS011;6925;47.816;13.072;2022-11-10T22:07:37;2.03;;;1.10;;
13706;SDS011;6925;47.816;13.072;2022-11-10T22:10:05;3.40;;;1.50;;
13706;SDS011;6925;47.816;13.072;2022-11-10T22:12:54;2.90;;;1.30;;
13706;SDS011;6925;47.816;13.072;2022-11-10T22:15:39;3.40;;;1.20;;
13706;SDS011;6925;47.816;13.072;2022-11-10T22:18:24;3.33;;;1.52;;
13706;SDS011;6925;47.816;13.072;2022-11-10T22:21:07;2.83;;;1.13;;
13706;SDS011;6925;47.816;13.072;2022-11-10T22:23:36;3.13;;;1.40;;
13706;SDS011;6925;47.816;13.072;2022-11-10T22:26:21;3.30;;;1.10;;
13706;SDS011;6925;47.816;13.072;2022-11-10T22:28:50;2.90;;;0.93;;
13706;SDS011;6925;47.816;13.072;2022-11-10T22:31:17;4.68;;;1.20;;
13706;SDS011;6925;47.816;13.072;2022-11-10T22:33:44;2.65;;;1.30;;
13706;SDS011;6925;47.816;13.072;2022-11-10T22:36:15;2.60;;;1.00;;
13706;SDS011;6925;47.816;13.072;2022-11-10T22:38:43;2.72;;;1.10;;
13706;SDS011;6925;47.816;13.072;2022-11-10T22:41:13;3.78;;;1.20;;
13706;SDS011;6925;47.816;13.072;2022-11-10T22:44:03;1.80;;;1.10;;
13706;SDS011;6925;47.816;13.072;2022-11-10T22:46:32;3.17;;;1.30;;
13706;SDS011;6925;47.816;13.072;2022-11-10T22:49:04;4.00;;;1.17;;
13706;SDS011;6925;47.816;13.072;2022-11-10T22:51:33;2.65;;;1.10;;
13706;SDS011;6925;47.816;13.072;2022-11-10T22:54:01;2.78;;;1.30;;
13706;SDS011;6925;47.816;13.072;2022-11-10T22:56:30;3.50;;;1.30;;
13706;SDS011;6925;47.816;13.072;2022-11-10T22:59:00;2.70;;;1.27;;
13706;SDS011;6925;47.816;13.072;2022-11-10T23:01:28;3.20;;;1.27;;
13706;SDS011;6925;47.816;13.072;2022-11-10T23:03:57;3.78;;;1.50;;
13706;SDS011;6925;47.816;13.072;2022-11-10T23:06:25;3.83;;;1.20;;
13706;SDS011;6925;47.816;13.072;2022-11-10T23:08:53;1.98;;;1.00;;
13706;SDS011;6925;47.816;13.072;2022-11-10T23:11:21;3.00;;;1.30;;
13706;SDS011;6925;47.816;13.072;2022-11-10T23:13:51;2.50;;;1.20;;
13706;SDS011;6925;47.816;13.072;2022-11-10T23:16:20;1.90;;;1.00;;
13706;SDS011;6925;47.816;13.072;2022-11-10T23:18:49;2.90;;;1.17;;
13706;SDS011;6925;47.816;13.072;2022-11-10T23:21:18;3.20;;;1.05;;
13706;SDS011;6925;47.816;13.072;2022-11-10T23:23:49;3.88;;;1.10;;
13706;SDS011;6925;47.816;13.072;2022-11-10T23:26:18;4.18;;;1.20;;
13706;SDS011;6925;47.816;13.072;2022-11-10T23:28:46;2.67;;;0.90;;
13706;SDS011;6925;47.816;13.072;2022-11-10T23:31:15;1.63;;;0.88;;
13706;SDS011;6925;47.816;13.072;2022-11-10T23:33:46;3.03;;;1.13;;
13706;SDS011;6925;47.816;13.072;2022-11-10T23:36:16;1.70;;;0.70;;
13706;SDS011;6925;47.816;13.072;2022-11-10T23:38:44;1.63;;;0.70;;
13706;SDS011;6925;47.816;13.072;2022-11-10T23:41:13;2.75;;;1.10;;
13706;SDS011;6925;47.816;13.072;2022-11-10T23:43:42;4.05;;;0.95;;
13706;SDS011;6925;47.816;13.072;2022-11-10T23:46:09;1.67;;;0.77;;
13706;SDS011;6925;47.816;13.072;2022-11-10T23:48:37;1.73;;;0.80;;
13706;SDS011;6925;47.816;13.072;2022-11-10T23:51:09;2.83;;;1.13;;
13706;SDS011;6925;47.816;13.072;2022-11-10T23:53:38;1.23;;;0.63;;
13706;SDS011;6925;47.816;13.072;2022-11-10T23:56:08;2.30;;;1.20;;
13706;SDS011;6925;47.816;13.072;2022-11-10T23:58:37;4.50;;;1.13;;
